createdAt,value
2019-05-14T00:01:11.798Z,12.90
2019-05-14T00:06:35.975Z,12.80
2019-05-14T00:12:02.707Z,12.60
2019-05-14T00:17:24.739Z,12.50
2019-05-14T00:22:48.388Z,11.80
2019-05-14T00:28:12.251Z,11.80
2019-05-14T00:33:36.035Z,10.90
2019-05-14T00:39:01.782Z,11.50
2019-05-14T00:44:25.483Z,11.50
2019-05-14T00:49:51.509Z,11.80
2019-05-14T00:55:14.212Z,11.40
2019-05-14T01:00:38.615Z,11.60
2019-05-14T01:06:03.172Z,11.50
2019-05-14T01:11:27.232Z,11.20
2019-05-14T01:16:51.508Z,11.50
2019-05-14T01:22:14.798Z,11.20
2019-05-14T01:27:38.354Z,11.50
2019-05-14T01:33:01.972Z,11.50
2019-05-14T01:38:25.812Z,11.60
2019-05-14T01:43:51.281Z,11.50
2019-05-14T01:49:14.638Z,11.60
2019-05-14T01:54:38.383Z,11.60
2019-05-14T02:00:02.381Z,11.20
2019-05-14T02:05:26.781Z,11.50
2019-05-14T02:10:52.575Z,11.50
2019-05-14T02:16:15.340Z,11.60
2019-05-14T02:21:38.863Z,11.60
2019-05-14T02:27:02.473Z,11.60
2019-05-14T02:32:25.853Z,11.60
2019-05-14T02:37:50.487Z,11.00
2019-05-14T02:43:13.819Z,10.90
2019-05-14T02:48:40.176Z,11.30
2019-05-14T02:54:02.363Z,11.60
2019-05-14T02:59:25.911Z,11.60
2019-05-14T03:04:50.065Z,11.80
2019-05-14T03:10:14.323Z,11.80
2019-05-14T03:15:39.131Z,11.70
2019-05-14T03:21:02.582Z,11.70
2019-05-14T03:26:28.628Z,11.60
2019-05-14T03:31:53.030Z,11.40
2019-05-14T03:37:22.578Z,11.40
2019-05-14T03:42:41.424Z,11.40
2019-05-14T03:48:04.784Z,11.30
2019-05-14T03:53:29.591Z,11.20
2019-05-14T03:58:53.783Z,11.40
2019-05-14T04:04:19.458Z,11.50
2019-05-14T04:09:45.315Z,11.50
2019-05-14T04:15:09.960Z,11.50
2019-05-14T04:20:35.332Z,11.40
2019-05-14T04:26:00.568Z,11.50
2019-05-14T04:31:23.869Z,11.50
2019-05-14T04:36:50.198Z,11.50
2019-05-14T04:42:13.907Z,11.50
2019-05-14T04:47:41.530Z,11.60
2019-05-14T04:53:02.173Z,11.60
2019-05-14T04:58:29.368Z,11.60
2019-05-14T05:03:51.007Z,11.70
2019-05-14T05:09:15.089Z,11.90
2019-05-14T05:14:38.825Z,12.00
2019-05-14T05:20:02.528Z,12.10
2019-05-14T05:25:29.089Z,12.10
2019-05-14T05:30:52.223Z,12.40
2019-05-14T05:36:15.536Z,12.60
2019-05-14T05:41:39.142Z,12.80
2019-05-14T05:47:03.083Z,12.90
2019-05-14T05:52:28.231Z,12.90
2019-05-14T05:57:51.017Z,13.10
2019-05-14T06:03:14.763Z,13.40
2019-05-14T06:08:39.023Z,13.70
2019-05-14T06:14:02.867Z,13.60
2019-05-14T06:19:28.828Z,14.10
2019-05-14T06:24:51.375Z,14.80
2019-05-14T06:30:18.391Z,14.40
2019-05-14T06:35:41.869Z,14.80
2019-05-14T06:41:05.496Z,15.60
2019-05-14T06:46:29.176Z,15.90
2019-05-14T06:51:52.475Z,15.30
2019-05-14T06:57:18.061Z,16.00
2019-05-14T07:02:44.058Z,16.60
2019-05-14T07:08:08.973Z,17.50
2019-05-14T07:13:31.661Z,17.90
2019-05-14T07:18:55.586Z,18.30
2019-05-14T07:24:19.703Z,18.80
2019-05-14T07:29:43.905Z,18.00
2019-05-14T07:35:09.341Z,18.20
2019-05-14T07:40:33.170Z,19.20
2019-05-14T07:45:59.162Z,18.40
2019-05-14T07:51:22.751Z,19.50
2019-05-14T07:56:49.067Z,19.70
2019-05-14T08:02:12.956Z,20.10
2019-05-14T08:07:38.833Z,20.10
2019-05-14T08:13:01.463Z,20.90
2019-05-14T08:18:24.960Z,20.30
2019-05-14T08:23:48.407Z,21.00
2019-05-14T08:29:11.905Z,21.10
2019-05-14T08:34:35.474Z,20.50
2019-05-14T08:39:59.655Z,21.20
2019-05-14T08:45:24.051Z,22.10
2019-05-14T08:50:48.109Z,22.90
2019-05-14T08:56:12.380Z,23.60
2019-05-14T09:01:35.474Z,23.70
2019-05-14T09:06:59.086Z,23.30
2019-05-14T09:12:22.755Z,24.00
2019-05-14T09:17:48.455Z,24.40
2019-05-14T09:23:11.555Z,24.20
2019-05-14T09:28:35.379Z,24.60
2019-05-14T09:33:59.015Z,24.60
2019-05-14T09:39:23.303Z,25.70
2019-05-14T09:44:49.057Z,25.40
2019-05-14T09:50:19.376Z,24.20
2019-05-14T09:55:38.842Z,25.20
2019-05-14T10:01:03.073Z,25.70
2019-05-14T10:06:28.436Z,25.90
2019-05-14T10:11:51.957Z,25.20
2019-05-14T10:17:19.167Z,24.70
2019-05-14T10:22:40.431Z,23.80
2019-05-14T10:28:03.778Z,23.70
2019-05-14T10:33:28.742Z,24.50
2019-05-14T10:38:51.839Z,23.10
2019-05-14T10:44:15.403Z,23.30
2019-05-14T10:49:39.249Z,24.90
2019-05-14T10:55:02.776Z,23.10
2019-05-14T11:00:28.255Z,24.00
2019-05-14T11:05:50.938Z,24.20
2019-05-14T11:11:14.373Z,24.20
2019-05-14T11:16:41.756Z,24.40
2019-05-14T11:22:02.990Z,23.60
2019-05-14T11:27:26.325Z,25.70
2019-05-14T11:32:50.332Z,24.30
2019-05-14T11:38:28.518Z,23.60
2019-05-14T11:43:39.953Z,24.30
2019-05-14T11:49:04.056Z,23.70
2019-05-14T11:54:29.184Z,25.70
2019-05-14T11:59:52.586Z,26.20
2019-05-14T12:05:18.726Z,26.10
2019-05-14T12:10:41.344Z,26.40
2019-05-14T12:16:05.176Z,26.70
2019-05-14T12:21:29.019Z,26.80
2019-05-14T12:26:52.767Z,25.90
2019-05-14T12:32:15.745Z,28.00
2019-05-14T12:37:39.219Z,28.00
2019-05-14T12:43:03.339Z,28.10
2019-05-14T12:48:29.815Z,28.90
2019-05-14T12:53:52.464Z,27.50
2019-05-14T12:59:15.699Z,28.10
2019-05-14T13:04:39.509Z,27.90
2019-05-14T13:10:03.823Z,28.20
2019-05-14T13:15:28.668Z,27.60
2019-05-14T13:20:52.447Z,28.40
2019-05-14T13:26:18.708Z,27.40
2019-05-14T13:31:41.223Z,27.80
2019-05-14T13:37:05.093Z,28.30
2019-05-14T13:42:29.572Z,29.30
2019-05-14T13:47:53.839Z,28.10
2019-05-14T13:53:18.908Z,27.00
2019-05-14T13:58:42.432Z,27.10
2019-05-14T14:04:11.342Z,26.10
2019-05-14T14:09:31.432Z,25.70
2019-05-14T14:14:55.396Z,27.00
2019-05-14T14:20:19.604Z,27.80
2019-05-14T14:25:43.744Z,27.30
2019-05-14T14:31:10.555Z,27.00
2019-05-14T14:36:31.892Z,25.40
2019-05-14T14:41:58.256Z,25.40
2019-05-14T14:47:20.071Z,25.70
2019-05-14T14:52:43.675Z,25.40
2019-05-14T14:58:11.547Z,26.00
2019-05-14T15:03:32.449Z,25.70
2019-05-14T15:08:58.682Z,25.10
2019-05-14T15:14:20.800Z,24.70
2019-05-14T15:19:44.825Z,23.90
2019-05-14T15:25:09.326Z,24.30
2019-05-14T15:30:33.623Z,24.10
2019-05-14T15:35:58.227Z,23.40
2019-05-14T15:41:22.275Z,22.70
2019-05-14T15:46:58.742Z,24.30
2019-05-14T15:52:22.386Z,25.00
2019-05-14T15:57:46.160Z,23.20
2019-05-14T16:03:10.127Z,22.50
2019-05-14T16:08:33.884Z,23.60
2019-05-14T16:13:57.166Z,23.60
2019-05-14T16:19:21.072Z,23.40
2019-05-14T16:24:56.406Z,23.10
2019-05-14T16:30:11.273Z,22.80
2019-05-14T16:35:35.030Z,23.20
2019-05-14T16:40:59.608Z,22.00
2019-05-14T16:46:23.955Z,21.10
2019-05-14T16:51:49.570Z,20.90
2019-05-14T16:57:12.194Z,21.00
2019-05-14T17:02:36.019Z,21.00
2019-05-14T17:07:59.886Z,20.10
2019-05-14T17:13:23.310Z,20.80
2019-05-14T17:18:48.638Z,20.50
2019-05-14T17:24:12.187Z,19.40
2019-05-14T17:29:35.889Z,19.50
2019-05-14T17:34:59.196Z,19.00
2019-05-14T17:40:22.815Z,18.20
2019-05-14T17:45:48.232Z,18.60
2019-05-14T17:51:11.208Z,18.80
2019-05-14T17:56:34.819Z,18.20
2019-05-14T18:01:58.252Z,18.30
2019-05-14T18:07:21.938Z,17.60
2019-05-14T18:12:47.951Z,17.30
2019-05-14T18:18:10.292Z,17.50
2019-05-14T18:23:33.748Z,16.80
2019-05-14T18:28:58.089Z,16.70
2019-05-14T18:34:21.798Z,16.60
2019-05-14T18:39:52.878Z,16.90
2019-05-14T18:45:18.897Z,16.80
2019-05-14T18:50:49.271Z,17.10
2019-05-14T18:56:23.619Z,17.40
2019-05-14T19:01:49.253Z,17.70
2019-05-14T19:07:11.613Z,16.80
2019-05-14T19:12:35.007Z,16.90
2019-05-14T19:18:01.347Z,14.00
2019-05-14T19:23:25.135Z,16.50
2019-05-14T19:28:48.867Z,16.40
2019-05-14T19:34:12.558Z,16.50
2019-05-14T19:39:38.379Z,16.60
2019-05-14T19:45:01.360Z,16.40
2019-05-14T19:50:25.231Z,16.50
2019-05-14T19:55:48.731Z,16.70
2019-05-14T20:01:12.034Z,16.80
2019-05-14T20:06:38.604Z,21.10
2019-05-14T20:12:01.022Z,16.80
2019-05-14T20:17:24.469Z,16.70
2019-05-14T20:22:50.104Z,16.70
2019-05-14T20:28:13.643Z,16.70
2019-05-14T20:33:37.527Z,16.60
2019-05-14T20:39:01.720Z,16.50
2019-05-14T20:44:27.848Z,16.40
2019-05-14T20:49:50.484Z,16.30
2019-05-14T20:55:14.152Z,16.10
2019-05-14T21:00:41.284Z,16.00
2019-05-14T21:06:02.969Z,17.30
2019-05-14T21:11:28.557Z,16.00
2019-05-14T21:16:51.443Z,16.00
2019-05-14T21:22:15.148Z,15.90
2019-05-14T21:27:47.622Z,15.90
2019-05-14T21:33:10.802Z,15.90
2019-05-14T21:38:34.595Z,15.90
2019-05-14T21:43:58.372Z,15.80
2019-05-14T21:49:23.014Z,15.70
2019-05-14T21:54:48.072Z,15.60
2019-05-14T22:00:19.534Z,15.60
2019-05-14T22:05:43.347Z,15.40
2019-05-14T22:11:07.371Z,15.50
2019-05-14T22:16:30.483Z,15.30
2019-05-14T22:21:54.108Z,15.20
2019-05-14T22:27:18.420Z,15.20
2019-05-14T22:32:42.498Z,15.10
2019-05-14T22:38:05.956Z,15.10
2019-05-14T22:43:30.050Z,14.90
2019-05-14T22:48:53.446Z,14.90
2019-05-14T22:54:17.732Z,12.10
2019-05-14T22:59:42.750Z,14.30
2019-05-14T23:05:08.285Z,14.40
2019-05-14T23:10:31.850Z,14.40
2019-05-14T23:15:55.878Z,14.40
2019-05-14T23:21:19.331Z,14.50
2019-05-14T23:26:43.396Z,14.40
2019-05-14T23:32:08.181Z,14.20
2019-05-14T23:37:31.927Z,13.80
2019-05-14T23:42:55.189Z,13.70
2019-05-14T23:48:18.970Z,13.60
2019-05-14T23:53:43.352Z,13.30
2019-05-14T23:59:09.083Z,13.20
